Time;durP1;ratioP1;P1;durP2;ratioP2;P2;SDS_P1;SDS_P2;PMS_P1;PMS_P2;Temp;Humidity;BMP_temperature;BMP_pressure;BME280_temperature;BME280_humidity;BME280_pressure;Samples;Min_cycle;Max_cycle;Signal;HPM_P1;HPM_P2
2022/11/30 00:02:22;;;;;;;44.72;27.33;;;6.60;99.90;;;;;;4908853;29;20044;-62
2022/11/30 00:04:47;;;;;;;48.30;27.65;;;6.60;99.90;;;;;;4879724;29;20048;-63
2022/11/30 00:07:13;;;;;;;42.67;27.20;;;6.50;99.90;;;;;;4882113;29;20098;-62
2022/11/30 00:09:39;;;;;;;46.35;27.02;;;6.50;99.90;;;;;;4890767;29;20082;-62
2022/11/30 00:12:05;;;;;;;44.88;27.58;;;6.40;99.90;;;;;;4876072;29;20055;-61
2022/11/30 00:14:31;;;;;;;45.33;26.92;;;6.40;99.90;;;;;;4907991;29;20094;-62
2022/11/30 00:16:56;;;;;;;42.80;27.15;;;6.40;99.90;;;;;;4879468;29;20047;-63
2022/11/30 00:19:22;;;;;;;46.20;27.60;;;6.40;99.90;;;;;;4880375;29;20054;-62
2022/11/30 00:21:48;;;;;;;42.95;26.42;;;6.30;99.90;;;;;;4875979;29;20056;-63
2022/11/30 00:24:14;;;;;;;43.47;26.13;;;6.30;99.90;;;;;;4891521;29;20140;-62
2022/11/30 00:26:40;;;;;;;44.97;27.10;;;6.30;99.90;;;;;;4876044;29;20544;-62
2022/11/30 00:29:06;;;;;;;39.13;24.17;;;6.20;99.90;;;;;;4889933;29;20055;-62
2022/11/30 00:31:31;;;;;;;41.10;23.98;;;6.20;99.90;;;;;;4867409;29;20758;-62
2022/11/30 00:33:57;;;;;;;37.35;23.77;;;6.10;99.90;;;;;;4892515;29;20051;-61
2022/11/30 00:36:23;;;;;;;38.90;24.73;;;6.00;99.90;;;;;;4896259;29;20506;-62
2022/11/30 00:38:50;;;;;;;46.42;25.88;;;5.90;99.90;;;;;;4889433;29;20055;-63
2022/11/30 00:41:17;;;;;;;45.00;25.95;;;5.80;99.90;;;;;;4896907;29;20051;-62
2022/11/30 00:43:43;;;;;;;42.70;26.33;;;5.80;99.90;;;;;;4906256;29;20234;-63
2022/11/30 00:46:10;;;;;;;107.18;20.67;;;5.80;99.90;;;;;;4888687;29;20193;-63
2022/11/30 00:48:37;;;;;;;27.63;15.07;;;5.70;99.90;;;;;;4909248;29;20058;-61
2022/11/30 00:51:03;;;;;;;22.90;15.52;;;5.70;99.90;;;;;;4880378;29;20051;-62
2022/11/30 00:53:29;;;;;;;27.60;15.70;;;5.60;99.90;;;;;;4907915;29;20071;-62
2022/11/30 00:55:55;;;;;;;48.38;17.63;;;5.50;99.90;;;;;;4895761;29;20115;-62
2022/11/30 00:58:20;;;;;;;129.10;16.67;;;5.40;99.90;;;;;;4903720;29;20462;-63
2022/11/30 01:00:46;;;;;;;19.15;13.27;;;5.40;99.90;;;;;;4909673;29;20511;-62
2022/11/30 01:03:13;;;;;;;37.00;16.35;;;5.30;99.90;;;;;;4886030;29;20067;-61
2022/11/30 01:05:39;;;;;;;30.60;16.15;;;5.20;99.90;;;;;;4888047;29;20052;-62
2022/11/30 01:08:08;;;;;;;29.23;15.35;;;5.20;99.90;;;;;;4886790;29;20538;-63
2022/11/30 01:10:35;;;;;;;25.38;16.48;;;5.20;99.90;;;;;;4904466;29;20103;-61
2022/11/30 01:13:02;;;;;;;26.75;17.38;;;5.20;99.90;;;;;;4905165;29;20062;-63
2022/11/30 01:15:28;;;;;;;33.95;20.80;;;5.30;99.90;;;;;;4890919;29;20044;-63
2022/11/30 01:17:54;;;;;;;36.50;21.23;;;5.30;99.90;;;;;;4895116;29;20052;-63
2022/11/30 01:20:19;;;;;;;38.00;23.23;;;5.30;99.90;;;;;;4894215;29;20048;-62
2022/11/30 01:22:45;;;;;;;45.97;25.45;;;5.30;99.90;;;;;;4903355;29;20051;-61
2022/11/30 01:25:11;;;;;;;48.13;26.48;;;5.40;99.90;;;;;;4903098;29;20052;-63
2022/11/30 01:27:37;;;;;;;42.65;24.52;;;5.40;99.90;;;;;;4889483;29;20623;-62
2022/11/30 01:30:04;;;;;;;48.75;24.52;;;5.40;99.90;;;;;;4891330;29;20062;-63
2022/11/30 01:32:30;;;;;;;41.33;23.90;;;5.50;99.90;;;;;;4893845;29;20062;-62
2022/11/30 01:34:55;;;;;;;38.92;24.55;;;5.50;99.90;;;;;;4903166;29;20079;-61
2022/11/30 01:37:22;;;;;;;43.40;25.20;;;5.60;99.90;;;;;;4888606;29;20364;-62
2022/11/30 01:39:47;;;;;;;44.63;25.77;;;5.60;99.90;;;;;;4877197;29;20505;-63
2022/11/30 01:42:16;;;;;;;45.45;26.55;;;5.60;99.90;;;;;;4887498;29;20054;-62
2022/11/30 01:44:57;;;;;;;51.10;26.35;;;5.60;99.90;;;;;;4885378;29;20051;-62
2022/11/30 01:47:38;;;;;;;48.05;27.00;;;5.70;99.90;;;;;;4887386;29;20138;-61
2022/11/30 01:50:31;;;;;;;51.30;27.55;;;5.70;99.90;;;;;;4887845;29;20055;-62
2022/11/30 01:52:57;;;;;;;45.05;26.50;;;5.70;99.90;;;;;;4889430;29;20122;-61
2022/11/30 01:55:35;;;;;;;47.45;26.80;;;5.80;99.90;;;;;;4877274;29;20078;-63
2022/11/30 01:58:08;;;;;;;54.33;29.40;;;5.80;99.90;;;;;;4887985;29;20039;-61
2022/11/30 02:00:34;;;;;;;;;;;5.80;99.90;;;;;;4884092;29;20058;-61
2022/11/30 02:03:16;;;;;;;58.20;30.45;;;5.80;99.90;;;;;;4913941;29;19927;-63
2022/11/30 02:05:42;;;;;;;57.20;30.25;;;5.80;99.90;;;;;;4875943;29;20056;-61
2022/11/30 02:08:09;;;;;;;56.42;28.75;;;5.90;99.90;;;;;;4887623;29;20526;-61
2022/11/30 02:10:39;;;;;;;49.33;27.75;;;5.90;99.90;;;;;;4887346;29;20490;-62
2022/11/30 02:13:14;;;;;;;51.38;27.60;;;5.90;99.90;;;;;;4890600;29;20110;-62
2022/11/30 02:16:04;;;;;;;57.80;29.13;;;5.90;99.90;;;;;;4899630;29;20062;-62
2022/11/30 02:19:01;;;;;;;55.90;28.70;;;5.90;99.90;;;;;;4885327;29;20055;-62
2022/11/30 02:21:47;;;;;;;52.40;30.15;;;5.90;99.90;;;;;;4904794;29;20059;-62
2022/11/30 02:24:32;;;;;;;58.75;29.23;;;5.90;99.90;;;;;;4886148;29;20044;-62
2022/11/30 02:27:12;;;;;;;51.85;27.33;;;5.90;99.90;;;;;;4877933;29;20054;-63
2022/11/30 02:29:50;;;;;;;54.30;28.65;;;5.90;99.90;;;;;;4903497;29;20052;-63
2022/11/30 02:32:25;;;;;;;53.00;28.25;;;6.00;99.90;;;;;;4890223;29;20506;-61
2022/11/30 02:34:53;;;;;;;47.40;27.30;;;5.90;99.90;;;;;;4889866;29;20066;-62
2022/11/30 02:37:22;;;;;;;48.65;27.60;;;6.00;99.90;;;;;;4876866;29;20052;-61
2022/11/30 02:39:48;;;;;;;55.45;28.73;;;5.90;99.90;;;;;;4887073;29;20047;-61
2022/11/30 02:42:14;;;;;;;54.95;28.58;;;6.00;99.90;;;;;;4887348;29;20055;-62
2022/11/30 02:44:47;;;;;;;57.15;29.52;;;5.90;99.90;;;;;;4870712;29;20052;-63
2022/11/30 02:47:47;;;;;;;54.30;29.40;;;6.00;99.90;;;;;;4885513;29;20139;-62
2022/11/30 02:50:32;;;;;;;53.88;29.58;;;6.00;99.90;;;;;;4884888;29;20151;-63
2022/11/30 02:52:58;;;;;;;55.38;29.92;;;6.00;99.90;;;;;;4903744;29;20410;-61
2022/11/30 02:55:27;;;;;;;50.88;28.73;;;6.00;99.90;;;;;;4892466;29;20945;-61
2022/11/30 02:57:52;;;;;;;59.42;31.63;;;6.00;99.90;;;;;;4894241;29;20110;-63
2022/11/30 03:00:18;;;;;;;55.80;30.42;;;6.00;99.90;;;;;;4891179;29;20044;-61
2022/11/30 03:02:44;;;;;;;52.78;29.40;;;6.00;99.90;;;;;;4877550;29;20119;-62
2022/11/30 03:05:10;;;;;;;54.80;30.15;;;6.00;99.90;;;;;;4886078;29;20051;-62
2022/11/30 03:07:37;;;;;;;56.53;30.45;;;6.00;99.90;;;;;;4878540;29;20039;-63
2022/11/30 03:10:04;;;;;;;55.78;29.05;;;6.00;99.90;;;;;;4868491;29;20103;-62
2022/11/30 03:12:30;;;;;;;59.88;31.05;;;6.00;99.90;;;;;;4883772;29;20071;-61
2022/11/30 03:14:56;;;;;;;58.67;30.30;;;6.00;99.90;;;;;;4887002;29;20044;-62
2022/11/30 03:17:22;;;;;;;59.10;31.08;;;6.00;99.90;;;;;;4887535;29;20048;-62
2022/11/30 03:19:48;;;;;;;61.10;32.03;;;6.10;99.90;;;;;;4872236;29;20128;-61
2022/11/30 03:22:13;;;;;;;55.65;29.88;;;6.00;99.90;;;;;;4861660;29;20123;-62
2022/11/30 03:24:39;;;;;;;56.17;30.20;;;6.00;99.90;;;;;;4898506;29;20056;-62
2022/11/30 03:27:05;;;;;;;56.72;29.60;;;6.00;99.90;;;;;;4886342;29;20047;-61
2022/11/30 03:29:31;;;;;;;61.88;29.85;;;6.10;99.90;;;;;;4889741;29;20075;-61
2022/11/30 03:31:57;;;;;;;54.92;29.52;;;6.20;99.90;;;;;;4887554;29;20048;-61
2022/11/30 03:34:25;;;;;;;57.70;31.75;;;6.00;99.90;;;;;;4871659;29;20055;-61
2022/11/30 03:36:51;;;;;;;62.42;31.63;;;6.10;99.90;;;;;;4889161;29;20039;-62
2022/11/30 03:39:16;;;;;;;54.08;30.27;;;6.00;99.90;;;;;;4886736;29;20119;-63
2022/11/30 03:41:42;;;;;;;52.60;29.83;;;6.10;99.90;;;;;;4887290;29;20194;-62
2022/11/30 03:44:08;;;;;;;54.22;30.00;;;6.00;99.90;;;;;;4895805;29;20052;-62
2022/11/30 03:46:34;;;;;;;59.60;31.25;;;6.10;99.90;;;;;;4874294;29;20052;-62
2022/11/30 03:49:00;;;;;;;58.08;31.02;;;6.10;99.90;;;;;;4892844;29;20093;-61
2022/11/30 03:51:25;;;;;;;54.40;29.90;;;6.10;99.90;;;;;;4892960;29;20144;-62
2022/11/30 03:53:51;;;;;;;56.75;30.80;;;6.10;99.90;;;;;;4907882;29;20075;-63
2022/11/30 03:56:17;;;;;;;55.60;30.30;;;6.10;99.90;;;;;;4889333;29;20138;-61
2022/11/30 03:58:43;;;;;;;53.55;29.80;;;6.20;99.90;;;;;;4886520;29;20055;-63
2022/11/30 04:01:14;;;;;;;51.65;30.08;;;6.20;99.90;;;;;;4890135;29;20518;-63
2022/11/30 04:03:41;;;;;;;49.03;28.42;;;6.20;99.90;;;;;;4874573;29;20058;-61
2022/11/30 04:06:08;;;;;;;56.00;29.90;;;6.20;99.90;;;;;;4897459;29;20055;-61
2022/11/30 04:08:34;;;;;;;52.35;29.77;;;6.20;99.90;;;;;;4906567;29;20180;-61
2022/11/30 04:11:01;;;;;;;56.08;30.23;;;6.20;99.90;;;;;;4890696;29;20054;-62
2022/11/30 04:13:28;;;;;;;58.13;30.38;;;6.20;99.90;;;;;;4892603;29;20043;-61
2022/11/30 04:15:54;;;;;;;49.15;29.75;;;6.30;99.90;;;;;;4888998;29;20217;-61
2022/11/30 04:18:22;;;;;;;50.78;28.75;;;6.30;99.90;;;;;;4890800;29;20056;-61
2022/11/30 04:20:53;;;;;;;48.53;28.70;;;6.20;99.90;;;;;;4888914;29;20066;-62
2022/11/30 04:23:19;;;;;;;54.17;31.10;;;6.20;99.90;;;;;;4896760;29;20083;-62
2022/11/30 04:25:46;;;;;;;55.75;29.38;;;6.30;99.90;;;;;;4879542;29;20118;-62
2022/11/30 04:28:13;;;;;;;51.97;30.02;;;6.30;99.90;;;;;;4906798;29;20051;-62
2022/11/30 04:30:39;;;;;;;51.85;29.98;;;6.30;99.90;;;;;;4905485;29;20060;-62
2022/11/30 04:33:05;;;;;;;52.78;30.52;;;6.30;99.90;;;;;;4887542;29;20055;-61
2022/11/30 04:35:32;;;;;;;50.40;29.83;;;6.30;99.90;;;;;;4908274;29;20078;-62
2022/11/30 04:37:59;;;;;;;55.58;29.63;;;6.30;99.90;;;;;;4890629;29;20123;-61
2022/11/30 04:40:25;;;;;;;53.65;29.42;;;6.30;99.90;;;;;;4892730;29;20051;-62
2022/11/30 04:42:51;;;;;;;53.97;29.10;;;6.30;99.90;;;;;;4887849;29;20043;-63
2022/11/30 04:45:17;;;;;;;56.00;30.35;;;6.30;99.90;;;;;;4888239;29;20550;-62
2022/11/30 04:47:43;;;;;;;58.35;30.38;;;6.30;99.90;;;;;;4876728;29;20074;-63
2022/11/30 04:50:09;;;;;;;55.92;29.90;;;6.30;99.90;;;;;;4894500;29;20058;-61
2022/11/30 04:52:35;;;;;;;64.68;31.35;;;6.30;99.90;;;;;;4905488;29;20052;-61
2022/11/30 04:55:03;;;;;;;62.88;30.00;;;6.30;99.90;;;;;;4888956;29;20070;-61
2022/11/30 04:57:29;;;;;;;62.92;30.52;;;6.30;99.90;;;;;;4884847;29;20044;-62
2022/11/30 04:59:55;;;;;;;63.47;31.15;;;6.30;99.90;;;;;;4906001;29;20075;-62
2022/11/30 05:02:21;;;;;;;69.25;32.20;;;6.40;99.90;;;;;;4909249;29;20142;-63
2022/11/30 05:04:47;;;;;;;70.80;31.25;;;6.30;99.90;;;;;;4877768;29;20945;-62
2022/11/30 05:07:13;;;;;;;67.35;30.85;;;6.30;99.90;;;;;;4908698;29;20111;-62
2022/11/30 05:09:38;;;;;;;64.95;29.70;;;6.30;99.90;;;;;;4893797;29;20134;-63
2022/11/30 05:12:04;;;;;;;71.95;31.15;;;6.40;99.90;;;;;;4892956;29;20084;-62
2022/11/30 05:14:30;;;;;;;78.55;31.92;;;6.40;99.90;;;;;;4911106;29;20044;-63
2022/11/30 05:16:56;;;;;;;82.03;32.95;;;6.30;99.90;;;;;;4895568;29;20048;-62
2022/11/30 05:19:22;;;;;;;77.70;32.15;;;6.30;99.90;;;;;;4913068;29;20052;-61
2022/11/30 05:21:47;;;;;;;75.47;33.03;;;6.30;99.90;;;;;;4886424;29;20047;-63
2022/11/30 05:24:13;;;;;;;74.53;32.45;;;6.40;99.90;;;;;;4902409;29;20099;-61
2022/11/30 05:26:39;;;;;;;72.18;32.42;;;6.40;99.90;;;;;;4902108;29;20047;-62
2022/11/30 05:29:05;;;;;;;72.53;32.25;;;6.40;99.90;;;;;;4890819;29;20051;-62
2022/11/30 05:31:32;;;;;;;73.20;33.10;;;6.30;99.90;;;;;;4891812;29;20143;-61
2022/11/30 05:33:59;;;;;;;70.45;32.00;;;6.40;99.90;;;;;;4896202;29;20091;-62
2022/11/30 05:36:24;;;;;;;74.53;33.25;;;6.40;99.90;;;;;;4897426;29;20052;-62
2022/11/30 05:38:50;;;;;;;61.78;29.45;;;6.40;99.90;;;;;;4889813;29;20063;-62
2022/11/30 05:41:16;;;;;;;72.07;32.38;;;6.30;99.90;;;;;;4891286;29;20051;-62
2022/11/30 05:43:42;;;;;;;75.72;32.03;;;6.30;99.90;;;;;;4872427;29;20047;-61
2022/11/30 05:46:08;;;;;;;72.85;32.22;;;6.30;99.90;;;;;;4891603;29;20055;-63
2022/11/30 05:48:35;;;;;;;72.30;32.95;;;6.30;99.90;;;;;;4891523;29;20056;-61
2022/11/30 05:51:08;;;;;;;73.53;32.28;;;6.30;99.90;;;;;;4888618;29;20516;-61
2022/11/30 05:53:34;;;;;;;67.20;30.70;;;6.30;99.90;;;;;;4899539;28;20210;-62
2022/11/30 05:56:05;;;;;;;68.45;30.55;;;6.30;99.90;;;;;;4930351;28;20111;-62
2022/11/30 05:58:32;;;;;;;69.53;30.88;;;6.30;99.90;;;;;;4925585;28;20047;-62
2022/11/30 06:00:58;;;;;;;70.60;30.75;;;6.30;99.90;;;;;;4921793;28;20056;-62
2022/11/30 06:03:24;;;;;;;66.30;31.00;;;6.30;99.90;;;;;;4924670;28;20062;-61
2022/11/30 06:05:51;;;;;;;75.05;29.88;;;6.30;99.90;;;;;;4906717;28;20055;-61
2022/11/30 06:08:18;;;;;;;63.42;29.45;;;6.30;99.90;;;;;;4926893;28;20054;-63
2022/11/30 06:10:44;;;;;;;63.75;30.17;;;6.30;99.90;;;;;;4919786;28;20508;-63
2022/11/30 06:13:10;;;;;;;71.90;30.33;;;6.30;99.90;;;;;;4923825;28;20059;-62
2022/11/30 06:15:36;;;;;;;73.13;30.25;;;6.30;99.90;;;;;;4922608;28;20047;-61
2022/11/30 06:18:03;;;;;;;72.22;28.55;;;6.30;99.90;;;;;;4924199;28;20051;-62
2022/11/30 06:20:29;;;;;;;61.65;27.98;;;6.30;99.90;;;;;;4921039;28;20039;-63
2022/11/30 06:22:56;;;;;;;63.90;28.38;;;6.30;99.90;;;;;;4936911;28;20135;-62
2022/11/30 06:25:22;;;;;;;62.63;27.92;;;6.20;99.90;;;;;;4875302;29;20045;-62
2022/11/30 06:27:48;;;;;;;63.70;28.92;;;6.20;99.90;;;;;;4919199;28;20852;-63
2022/11/30 06:30:14;;;;;;;54.97;27.17;;;6.20;99.90;;;;;;4920145;28;20040;-62
2022/11/30 06:32:44;;;;;;;63.88;28.30;;;6.20;99.90;;;;;;4910268;28;20082;-62
2022/11/30 06:35:10;;;;;;;57.88;27.58;;;6.30;99.90;;;;;;4916202;28;20132;-62
2022/11/30 06:37:35;;;;;;;56.10;26.70;;;6.20;99.90;;;;;;4915248;28;22972;-62
2022/11/30 06:40:01;;;;;;;57.10;28.50;;;6.20;99.90;;;;;;4929077;28;20085;-62
2022/11/30 06:42:29;;;;;;;58.42;27.73;;;6.20;99.90;;;;;;4904050;28;20047;-62
2022/11/30 06:44:55;;;;;;;52.70;25.90;;;6.10;99.90;;;;;;4916999;28;20039;-62
2022/11/30 06:47:20;;;;;;;51.30;26.02;;;6.10;99.90;;;;;;4937584;28;20047;-63
2022/11/30 06:49:46;;;;;;;51.72;25.50;;;6.10;99.90;;;;;;4922909;28;20516;-61
2022/11/30 06:52:12;;;;;;;50.63;26.10;;;6.10;99.90;;;;;;4920056;28;20151;-63
2022/11/30 06:54:38;;;;;;;50.50;25.77;;;6.10;99.90;;;;;;4911904;28;20055;-63
2022/11/30 06:57:04;;;;;;;52.75;25.95;;;6.10;99.90;;;;;;4901809;29;20056;-62
2022/11/30 06:59:29;;;;;;;54.25;26.08;;;6.20;99.90;;;;;;4891960;29;20058;-61
2022/11/30 07:01:55;;;;;;;50.17;23.88;;;6.10;99.90;;;;;;4898821;29;20534;-61
2022/11/30 07:04:21;;;;;;;44.15;23.30;;;6.10;99.90;;;;;;4895982;29;20115;-62
2022/11/30 07:06:47;;;;;;;47.58;23.55;;;6.10;99.90;;;;;;4889594;29;20052;-61
2022/11/30 07:09:13;;;;;;;48.28;24.67;;;6.10;99.90;;;;;;4857279;29;20542;-62
2022/11/30 07:11:39;;;;;;;44.50;22.50;;;6.10;99.90;;;;;;4907125;29;20119;-62
2022/11/30 07:14:05;;;;;;;47.63;23.70;;;6.10;99.90;;;;;;4886712;29;20066;-63
2022/11/30 07:16:31;;;;;;;44.65;22.33;;;6.10;99.90;;;;;;4872983;29;20056;-62
2022/11/30 07:18:57;;;;;;;43.25;23.63;;;6.10;99.90;;;;;;4877993;29;20044;-62
2022/11/30 07:21:23;;;;;;;40.78;22.77;;;6.00;99.90;;;;;;4899900;29;20058;-62
2022/11/30 07:26:33;;;;;;;39.53;21.60;;;6.00;99.90;;;;;;4893558;29;20056;-61
2022/11/30 07:28:58;;;;;;;39.30;21.38;;;6.00;99.90;;;;;;4882414;29;20147;-62
2022/11/30 07:31:27;;;;;;;44.42;22.45;;;6.00;99.90;;;;;;4886458;29;20083;-62
2022/11/30 07:33:54;;;;;;;42.45;22.45;;;6.00;99.90;;;;;;4890532;29;20047;-61
2022/11/30 07:36:22;;;;;;;40.47;21.58;;;6.10;99.90;;;;;;4894554;29;20493;-62
2022/11/30 07:38:48;;;;;;;40.83;22.83;;;6.00;99.90;;;;;;4896880;29;20090;-62
2022/11/30 07:41:14;;;;;;;41.50;22.05;;;6.00;99.90;;;;;;4891059;29;20114;-62
2022/11/30 07:43:40;;;;;;;48.00;22.33;;;6.00;99.90;;;;;;4879153;29;20051;-63
2022/11/30 07:46:06;;;;;;;43.78;21.65;;;6.00;99.90;;;;;;4894961;29;20062;-63
2022/11/30 07:48:32;;;;;;;38.40;21.23;;;6.00;99.90;;;;;;4908035;29;21006;-61
2022/11/30 07:51:06;;;;;;;46.10;22.33;;;6.00;99.90;;;;;;4911671;29;20044;-62
2022/11/30 07:53:33;;;;;;;47.50;21.80;;;6.00;99.90;;;;;;4911795;29;20071;-62
2022/11/30 07:56:13;;;;;;;43.53;21.80;;;6.00;99.90;;;;;;4909545;29;20553;-62
2022/11/30 07:58:40;;;;;;;47.63;22.30;;;6.00;99.90;;;;;;4895051;29;20059;-61
2022/11/30 08:01:18;;;;;;;41.30;21.48;;;6.00;99.90;;;;;;4890840;29;20073;-62
2022/11/30 08:03:44;;;;;;;44.58;22.25;;;6.00;99.90;;;;;;4898204;29;20062;-63
2022/11/30 08:06:12;;;;;;;42.28;22.13;;;6.00;99.90;;;;;;4894711;29;20066;-61
2022/11/30 08:08:43;;;;;;;46.03;23.73;;;6.10;99.90;;;;;;4894106;29;20439;-62
2022/11/30 08:11:12;;;;;;;41.38;22.55;;;6.00;99.90;;;;;;4894725;29;20047;-60
2022/11/30 08:13:38;;;;;;;41.17;22.42;;;6.00;99.90;;;;;;4891708;29;20052;-61
2022/11/30 08:16:17;;;;;;;44.88;23.23;;;6.00;99.90;;;;;;4894612;29;20523;-63
2022/11/30 08:18:43;;;;;;;37.75;21.23;;;6.00;99.90;;;;;;4878868;29;23047;-62
2022/11/30 08:21:12;;;;;;;41.17;21.77;;;6.00;99.90;;;;;;4891927;29;20430;-62
2022/11/30 08:23:40;;;;;;;40.78;21.35;;;6.00;99.90;;;;;;4892844;29;20044;-61
2022/11/30 08:26:10;;;;;;;43.65;23.20;;;6.00;99.90;;;;;;4892283;29;20082;-61
2022/11/30 08:28:36;;;;;;;42.70;21.38;;;6.00;99.90;;;;;;4894449;29;20463;-61
2022/11/30 08:31:05;;;;;;;40.17;21.42;;;6.00;99.90;;;;;;4890190;29;20051;-62
2022/11/30 08:33:32;;;;;;;38.92;21.90;;;6.10;99.90;;;;;;4889872;29;20052;-62
2022/11/30 08:36:12;;;;;;;38.53;22.05;;;6.10;99.90;;;;;;4896532;29;20153;-63
2022/11/30 08:38:39;;;;;;;38.42;22.38;;;6.10;99.90;;;;;;4911337;29;20048;-61
2022/11/30 08:41:06;;;;;;;37.08;20.63;;;6.10;99.90;;;;;;4917000;29;20047;-62
2022/11/30 08:43:33;;;;;;;42.92;20.95;;;6.10;99.90;;;;;;4892958;29;20058;-63
2022/11/30 08:46:02;;;;;;;39.25;21.90;;;6.10;99.90;;;;;;4892943;29;22236;-61
2022/11/30 08:48:27;;;;;;;35.33;21.27;;;6.10;99.90;;;;;;4865668;29;20771;-63
2022/11/30 08:50:53;;;;;;;40.80;22.15;;;6.10;99.90;;;;;;4891168;29;20051;-63
2022/11/30 08:53:19;;;;;;;38.17;20.77;;;6.10;99.90;;;;;;4899364;28;20070;-63
2022/11/30 08:55:58;;;;;;;39.35;22.30;;;6.20;99.90;;;;;;4892370;29;20048;-62
2022/11/30 08:58:25;;;;;;;43.30;22.00;;;6.10;99.90;;;;;;4895706;29;20055;-62
2022/11/30 09:00:51;;;;;;;34.97;20.73;;;6.10;99.90;;;;;;4909547;29;20102;-62
2022/11/30 09:03:17;;;;;;;34.72;21.10;;;6.10;99.90;;;;;;4896807;29;20055;-62
2022/11/30 09:05:42;;;;;;;37.30;21.35;;;6.10;99.90;;;;;;4896646;29;20074;-63
2022/11/30 09:08:08;;;;;;;37.30;21.15;;;6.10;99.90;;;;;;4893106;29;20102;-62
2022/11/30 09:10:34;;;;;;;39.22;22.23;;;6.20;99.90;;;;;;4892872;29;20055;-62
2022/11/30 09:13:00;;;;;;;37.47;22.20;;;6.20;99.90;;;;;;4885797;29;20051;-61
2022/11/30 09:15:26;;;;;;;39.08;22.92;;;6.20;99.90;;;;;;4879326;29;20131;-61
2022/11/30 09:17:51;;;;;;;41.80;21.65;;;6.20;99.90;;;;;;4880788;29;20047;-63
2022/11/30 09:20:17;;;;;;;36.88;21.45;;;6.30;99.90;;;;;;4893372;29;20039;-62
2022/11/30 09:22:43;;;;;;;42.83;23.15;;;6.20;99.90;;;;;;4896916;29;20048;-62
2022/11/30 09:25:09;;;;;;;39.30;21.85;;;6.30;99.90;;;;;;4896787;29;20135;-62
2022/11/30 09:27:35;;;;;;;42.58;23.60;;;6.30;99.90;;;;;;4861575;29;20047;-62
2022/11/30 09:30:01;;;;;;;42.25;23.35;;;6.30;99.90;;;;;;4897485;29;20218;-62
2022/11/30 09:32:28;;;;;;;50.35;23.98;;;6.30;99.90;;;;;;4877078;29;20044;-63
2022/11/30 09:34:54;;;;;;;45.65;25.05;;;6.40;99.90;;;;;;4891767;29;20039;-61
2022/11/30 09:37:20;;;;;;;46.97;25.45;;;6.40;99.90;;;;;;4907694;29;20512;-62
2022/11/30 09:39:46;;;;;;;45.90;25.20;;;6.40;99.90;;;;;;4913623;29;20050;-61
2022/11/30 09:42:21;;;;;;;45.97;25.27;;;6.40;99.90;;;;;;4891251;29;20403;-62
2022/11/30 09:45:10;;;;;;;47.10;25.80;;;6.50;99.90;;;;;;4914309;29;20044;-62
2022/11/30 09:47:39;;;;;;;46.80;25.80;;;6.50;99.90;;;;;;4904721;29;20534;-63
2022/11/30 09:50:19;;;;;;;50.67;26.35;;;6.50;99.90;;;;;;4915796;29;20055;-61
2022/11/30 09:52:49;;;;;;;50.83;26.77;;;6.60;99.90;;;;;;4908478;29;20134;-63
2022/11/30 09:55:29;;;;;;;47.63;26.10;;;6.60;99.90;;;;;;4910649;29;20469;-62
2022/11/30 09:58:06;;;;;;;51.25;27.38;;;6.60;99.90;;;;;;4925133;28;20532;-61
2022/11/30 10:00:33;;;;;;;49.92;27.73;;;6.70;99.90;;;;;;4931647;28;20055;-62
2022/11/30 10:03:02;;;;;;;50.38;26.80;;;6.70;99.90;;;;;;4932416;28;20089;-61
2022/11/30 10:05:51;;;;;;;50.67;27.48;;;6.70;99.90;;;;;;4946595;28;20054;-61
2022/11/30 10:08:41;;;;;;;52.13;25.60;;;6.70;99.90;;;;;;4937108;28;20111;-62
2022/11/30 10:11:21;;;;;;;49.50;28.08;;;6.70;99.90;;;;;;4928883;28;20031;-63
2022/11/30 10:14:06;;;;;;;50.70;27.38;;;6.70;99.90;;;;;;4926866;28;20052;-62
2022/11/30 10:16:47;;;;;;;53.17;27.88;;;6.70;99.90;;;;;;4923198;28;20043;-62
2022/11/30 10:19:37;;;;;;;50.92;26.65;;;6.70;99.90;;;;;;4891658;29;20743;-63
2022/11/30 10:22:21;;;;;;;50.08;27.48;;;6.70;99.90;;;;;;4927910;28;20920;-62
2022/11/30 10:24:59;;;;;;;51.50;27.25;;;6.70;99.90;;;;;;4924006;28;20054;-62
2022/11/30 10:27:40;;;;;;;51.42;28.55;;;6.70;99.90;;;;;;4929268;28;20177;-63
2022/11/30 10:30:14;;;;;;;56.03;28.33;;;6.70;99.90;;;;;;4923990;28;20406;-61
2022/11/30 10:32:44;;;;;;;49.72;27.70;;;6.80;99.90;;;;;;4929801;28;20086;-61
2022/11/30 10:35:28;;;;;;;46.70;26.85;;;6.80;99.90;;;;;;4928021;28;20058;-63
2022/11/30 10:37:56;;;;;;;52.22;27.48;;;6.80;99.90;;;;;;4926159;28;20051;-61
2022/11/30 10:40:33;;;;;;;49.88;27.60;;;6.80;99.90;;;;;;4927850;28;20593;-61
2022/11/30 10:43:14;;;;;;;48.28;27.73;;;6.80;99.90;;;;;;4940578;28;20065;-62
2022/11/30 10:45:46;;;;;;;50.50;27.23;;;6.80;99.90;;;;;;4911462;28;20123;-63
2022/11/30 10:48:26;;;;;;;47.10;26.88;;;6.90;99.90;;;;;;4916618;28;20061;-63
2022/11/30 10:50:52;;;;;;;45.10;26.63;;;6.90;99.90;;;;;;4922272;28;20066;-61
2022/11/30 10:53:18;;;;;;;45.28;27.13;;;6.80;99.90;;;;;;4926358;28;21096;-62
2022/11/30 10:56:19;;;;;;;44.92;26.25;;;6.90;99.90;;;;;;4924709;28;20048;-62
2022/11/30 10:59:17;;;;;;;47.55;27.52;;;6.90;99.90;;;;;;4892877;29;20095;-63
2022/11/30 11:01:43;;;;;;;45.55;26.70;;;6.90;99.90;;;;;;4929774;28;20047;-62
2022/11/30 11:04:12;;;;;;;48.47;27.88;;;6.90;99.90;;;;;;4924568;28;20056;-62
2022/11/30 11:06:47;;;;;;;52.58;28.65;;;6.90;99.90;;;;;;4927816;28;20083;-63
2022/11/30 11:09:28;;;;;;;46.65;28.90;;;6.90;99.90;;;;;;4926723;28;20615;-62
2022/11/30 11:12:04;;;;;;;47.15;28.05;;;6.90;99.90;;;;;;4921243;28;20051;-61
2022/11/30 11:14:30;;;;;;;45.38;28.25;;;6.90;99.90;;;;;;4927560;28;20537;-61
2022/11/30 11:17:25;;;;;;;49.80;28.58;;;6.90;99.90;;;;;;4924947;28;20051;-62
2022/11/30 11:19:51;;;;;;;48.45;27.40;;;7.00;99.90;;;;;;4924157;28;20092;-62
2022/11/30 11:22:21;;;;;;;45.67;27.70;;;6.90;99.90;;;;;;4913024;29;20085;-63
2022/11/30 11:24:48;;;;;;;49.58;27.98;;;6.90;99.90;;;;;;4923805;28;20047;-62
2022/11/30 11:27:32;;;;;;;47.08;28.02;;;6.90;99.90;;;;;;4924520;28;20055;-63
2022/11/30 11:30:27;;;;;;;50.47;28.30;;;6.90;99.90;;;;;;4924491;28;20055;-62
2022/11/30 11:33:11;;;;;;;51.22;29.35;;;6.90;99.90;;;;;;4930414;28;20039;-61
2022/11/30 11:35:42;;;;;;;50.67;28.70;;;6.90;99.90;;;;;;4913062;28;20043;-62
2022/11/30 11:38:28;;;;;;;49.15;29.08;;;6.90;99.90;;;;;;4923707;28;20043;-61
2022/11/30 11:41:01;;;;;;;49.15;29.70;;;6.90;99.90;;;;;;4912381;28;20122;-63
2022/11/30 11:43:30;;;;;;;46.33;28.13;;;6.90;99.90;;;;;;4929973;28;21062;-62
2022/11/30 11:46:08;;;;;;;49.47;30.63;;;7.00;99.90;;;;;;4935754;28;20047;-62
2022/11/30 11:48:54;;;;;;;50.28;29.73;;;7.00;99.90;;;;;;4929783;28;20051;-61
2022/11/30 11:51:38;;;;;;;48.17;28.77;;;7.00;99.90;;;;;;4924310;28;20079;-63
2022/11/30 11:54:30;;;;;;;46.65;27.48;;;7.10;99.90;;;;;;4911467;28;20063;-63
2022/11/30 11:56:57;;;;;;;45.92;27.83;;;7.10;99.90;;;;;;4933675;28;20906;-62
2022/11/30 11:59:44;;;;;;;42.08;26.65;;;7.10;99.90;;;;;;4928195;28;20138;-63
2022/11/30 12:02:37;;;;;;;46.50;26.40;;;7.10;99.90;;;;;;4931331;28;20042;-62
2022/11/30 12:05:14;;;;;;;45.03;28.37;;;7.10;99.90;;;;;;4924303;28;20047;-62
2022/11/30 12:08:04;;;;;;;41.58;26.50;;;7.10;99.90;;;;;;4928463;28;20061;-63
2022/11/30 12:10:40;;;;;;;45.10;27.65;;;7.10;99.90;;;;;;4925724;28;20056;-63
2022/11/30 12:13:20;;;;;;;45.20;26.83;;;7.00;99.90;;;;;;4913951;28;20047;-62
2022/11/30 12:15:51;;;;;;;44.75;26.77;;;7.00;99.90;;;;;;4924035;28;20056;-62
2022/11/30 12:18:29;;;;;;;46.50;28.13;;;7.00;99.90;;;;;;4930204;28;20513;-62
2022/11/30 12:21:00;;;;;;;47.45;28.02;;;7.10;99.90;;;;;;4926719;28;20051;-61
2022/11/30 12:23:32;;;;;;;49.83;29.27;;;7.00;99.90;;;;;;4932846;28;20097;-62
2022/11/30 12:26:12;;;;;;;46.97;27.92;;;7.00;99.90;;;;;;4928750;28;20074;-61
2022/11/30 12:29:16;;;;;;;51.45;29.05;;;7.00;99.90;;;;;;4935682;28;20078;-61
2022/11/30 12:32:22;;;;;;;45.35;28.00;;;7.00;99.90;;;;;;4940652;28;20051;-60
2022/11/30 12:35:00;;;;;;;49.10;28.83;;;7.00;99.90;;;;;;4935011;28;20458;-61
2022/11/30 12:37:35;;;;;;;49.35;29.00;;;7.00;99.90;;;;;;4930838;28;20081;-60
2022/11/30 12:40:20;;;;;;;52.05;30.48;;;7.10;99.90;;;;;;4937140;28;20044;-61
2022/11/30 12:42:54;;;;;;;50.83;30.00;;;7.10;99.90;;;;;;4939528;28;20420;-61
2022/11/30 12:45:25;;;;;;;49.50;28.77;;;7.00;99.90;;;;;;4937587;28;20101;-64
2022/11/30 12:48:22;;;;;;;50.63;30.52;;;7.00;99.90;;;;;;4940013;28;20043;-61
2022/11/30 12:51:08;;;;;;;54.20;30.45;;;7.00;99.90;;;;;;4933706;28;20110;-61
2022/11/30 12:53:36;;;;;;;55.22;30.05;;;7.00;99.90;;;;;;4948232;28;20118;-61
2022/11/30 12:56:27;;;;;;;50.58;30.13;;;7.00;99.90;;;;;;4906297;29;20079;-61
2022/11/30 12:59:11;;;;;;;50.00;30.02;;;7.00;99.90;;;;;;4910281;29;20048;-60